Alanreed, Texas
Current Conditions -  °F | °C
As of 10:15 AM on Wednesday 26 Nov 2014 (Local Time) from KPPA Reporting Station
Clear Clear  
Wind Chill: 34°   Ceiling: Unl
Heat Index: 42°   Visibility: 10mi
Dew Point: 26°   Wind: 16mph
Humidity: 54%   Direction: 360°N
Pressure: 30.27"   Gusts: NA
Location:  35.21°N, 100.74°W
Report Text: KPPA 261615Z AUTO 36014KT 10SM CLR 06/M03 A3027 RMK AO2 T00551031 PNO
Loading
Personal Weather Stations






























Interactive Weather Map New forecast layout! Learn more

10-Day Weather Forecast

Advertisements
Track Severe Weather on mobile